createdAt,value
2019-04-25T00:02:24.840Z,90.60
2019-04-25T00:04:53.522Z,92.30
2019-04-25T00:07:22.600Z,91.50
2019-04-25T00:09:52.805Z,93.10
2019-04-25T00:12:22.261Z,93.30
2019-04-25T00:14:51.304Z,92.00
2019-04-25T00:17:21.446Z,92.80
2019-04-25T00:19:51.064Z,96.00
2019-04-25T00:22:34.331Z,97.40
2019-04-25T00:25:15.920Z,98.60
2019-04-25T00:27:43.272Z,99.20
2019-04-25T00:30:11.318Z,99.90
2019-04-25T00:32:41.252Z,99.90
2019-04-25T00:35:11.712Z,99.50
2019-04-25T00:37:40.313Z,99.90
2019-04-25T00:40:09.003Z,99.90
2019-04-25T00:42:37.617Z,99.90
2019-04-25T00:45:07.483Z,99.90
2019-04-25T00:47:36.032Z,99.90
2019-04-25T00:50:05.608Z,99.90
2019-04-25T00:52:34.219Z,99.90
2019-04-25T00:55:02.793Z,99.90
2019-04-25T00:57:32.064Z,99.90
2019-04-25T01:00:18.258Z,99.90
2019-04-25T01:02:49.440Z,99.90
2019-04-25T01:05:18.258Z,99.90
2019-04-25T01:07:47.716Z,99.90
2019-04-25T01:10:16.507Z,99.90
2019-04-25T01:12:45.046Z,99.90
2019-04-25T01:15:14.523Z,99.90
2019-04-25T01:17:43.062Z,99.90
2019-04-25T01:20:12.068Z,99.90
2019-04-25T01:22:40.609Z,99.90
2019-04-25T01:25:10.609Z,99.90
2019-04-25T01:27:39.291Z,99.90
2019-04-25T01:30:09.297Z,99.90
2019-04-25T01:32:38.936Z,99.90
2019-04-25T01:35:18.039Z,99.90
2019-04-25T01:38:00.260Z,99.90
2019-04-25T01:40:45.826Z,99.90
2019-04-25T01:43:23.353Z,99.90
2019-04-25T01:45:53.811Z,99.90
2019-04-25T01:48:23.456Z,99.90
2019-04-25T01:50:53.912Z,99.90
2019-04-25T01:53:24.051Z,99.90
2019-04-25T01:56:00.564Z,99.90
2019-04-25T01:58:23.660Z,99.90
2019-04-25T02:00:54.642Z,99.90
2019-04-25T02:03:25.421Z,99.90
2019-04-25T02:05:53.381Z,99.90
2019-04-25T02:08:23.909Z,99.90
2019-04-25T02:10:56.698Z,99.90
2019-04-25T02:13:25.714Z,99.90
2019-04-25T02:15:55.164Z,99.90
2019-04-25T02:18:24.699Z,99.90
2019-04-25T02:20:56.582Z,99.90
2019-04-25T02:23:24.044Z,99.90
2019-04-25T02:26:06.795Z,99.90
2019-04-25T02:28:23.989Z,99.90
2019-04-25T02:30:53.665Z,99.90
2019-04-25T02:33:24.252Z,99.90
2019-04-25T02:35:54.297Z,99.90
2019-04-25T02:38:24.350Z,99.90
2019-04-25T02:40:56.303Z,99.90
2019-04-25T02:43:23.992Z,99.90
2019-04-25T02:46:06.496Z,99.90
2019-04-25T02:48:47.027Z,99.90
2019-04-25T02:51:26.531Z,99.90
2019-04-25T02:53:57.776Z,99.90
2019-04-25T02:56:34.073Z,99.90
2019-04-25T02:58:56.752Z,99.90
2019-04-25T03:01:26.247Z,99.90
2019-04-25T03:03:57.321Z,99.90
2019-04-25T03:06:25.477Z,99.90
2019-04-25T03:08:54.463Z,99.90
2019-04-25T03:11:24.511Z,99.90
2019-04-25T03:13:54.562Z,99.90
2019-04-25T03:16:25.127Z,99.90
2019-04-25T03:19:02.894Z,99.90
2019-04-25T03:21:35.253Z,99.90
2019-04-25T03:24:09.068Z,99.90
2019-04-25T03:26:40.366Z,99.90
2019-04-25T03:29:05.241Z,99.90
2019-04-25T03:31:35.063Z,99.90
2019-04-25T03:34:09.495Z,99.90
2019-04-25T03:36:34.450Z,99.90
2019-04-25T03:39:05.293Z,99.90
2019-04-25T03:41:34.165Z,99.90
2019-04-25T03:44:05.295Z,99.90
2019-04-25T03:46:33.651Z,99.90
2019-04-25T03:49:04.130Z,99.90
2019-04-25T03:51:33.693Z,99.90
2019-04-25T03:54:04.486Z,99.90
2019-04-25T03:56:33.383Z,99.90
2019-04-25T03:59:02.702Z,99.90
2019-04-25T04:01:34.145Z,99.90
2019-04-25T04:04:04.627Z,99.90
2019-04-25T04:06:34.033Z,99.90
2019-04-25T04:09:04.831Z,99.90
2019-04-25T04:11:33.823Z,99.90
2019-04-25T04:14:03.919Z,99.90
2019-04-25T04:16:34.349Z,99.90
2019-04-25T04:19:04.909Z,99.90
2019-04-25T04:21:40.413Z,99.90
2019-04-25T04:24:10.590Z,99.90
2019-04-25T04:26:39.158Z,99.90
2019-04-25T04:29:07.841Z,99.90
2019-04-25T04:31:36.455Z,99.90
2019-04-25T04:34:05.001Z,99.90
2019-04-25T04:36:33.890Z,99.90
2019-04-25T04:39:03.914Z,99.90
2019-04-25T04:41:33.806Z,99.90
2019-04-25T04:44:04.107Z,99.90
2019-04-25T04:46:34.012Z,99.90
2019-04-25T04:49:03.940Z,99.90
2019-04-25T04:51:33.613Z,99.90
2019-04-25T04:54:03.413Z,99.90
2019-04-25T04:56:34.047Z,99.90
2019-04-25T04:59:03.678Z,99.90
2019-04-25T05:01:33.972Z,99.90
2019-04-25T05:04:10.617Z,99.90
2019-04-25T05:06:40.942Z,99.90
2019-04-25T05:09:12.484Z,99.90
2019-04-25T05:11:41.806Z,99.90
2019-04-25T05:14:11.037Z,99.90
2019-04-25T05:16:40.406Z,99.90
2019-04-25T05:19:08.945Z,99.90
2019-04-25T05:21:37.593Z,99.90
2019-04-25T05:24:06.246Z,99.90
2019-04-25T05:26:34.792Z,99.90
2019-04-25T05:29:03.677Z,99.90
2019-04-25T05:31:34.215Z,99.90
2019-04-25T05:34:03.681Z,99.90
2019-04-25T05:36:38.240Z,99.90
2019-04-25T05:39:09.011Z,99.90
2019-04-25T05:41:40.031Z,99.90
2019-04-25T05:44:08.643Z,99.90
2019-04-25T05:46:37.198Z,99.90
2019-04-25T05:49:05.807Z,99.90
2019-04-25T05:51:34.438Z,99.90
2019-04-25T05:54:04.160Z,99.90
2019-04-25T05:56:33.774Z,99.90
2019-04-25T05:59:03.355Z,99.90
2019-04-25T06:01:35.552Z,99.90
2019-04-25T06:04:03.679Z,99.90
2019-04-25T06:06:36.659Z,99.90
2019-04-25T06:09:19.319Z,99.90
2019-04-25T06:12:05.968Z,99.90
2019-04-25T06:14:34.526Z,99.90
2019-04-25T06:17:10.586Z,99.90
2019-04-25T06:19:53.394Z,99.90
2019-04-25T06:22:26.825Z,99.90
2019-04-25T06:24:57.128Z,99.90
2019-04-25T06:27:28.168Z,99.90
2019-04-25T06:30:00.861Z,99.90
2019-04-25T06:32:29.055Z,99.90
2019-04-25T06:34:57.596Z,99.90
2019-04-25T06:37:27.003Z,99.90
2019-04-25T06:39:55.608Z,99.90
2019-04-25T06:42:24.790Z,99.90
2019-04-25T06:44:59.027Z,99.90
2019-04-25T06:47:29.576Z,99.90
2019-04-25T06:50:00.767Z,99.20
2019-04-25T06:52:31.176Z,98.00
2019-04-25T06:54:59.538Z,96.80
2019-04-25T06:57:29.134Z,95.70
2019-04-25T06:59:58.403Z,94.30
2019-04-25T07:02:27.375Z,92.50
2019-04-25T07:04:56.049Z,91.80
2019-04-25T07:07:26.657Z,90.40
2019-04-25T07:09:54.837Z,90.20
2019-04-25T07:12:26.285Z,87.30
2019-04-25T07:14:53.966Z,90.30
2019-04-25T07:17:24.092Z,88.50
2019-04-25T07:19:54.124Z,89.50
2019-04-25T07:22:23.972Z,88.30
2019-04-25T07:24:53.734Z,84.80
2019-04-25T07:27:25.402Z,86.90
2019-04-25T07:29:59.294Z,80.10
2019-04-25T07:32:37.226Z,80.50
2019-04-25T07:35:06.860Z,73.60
2019-04-25T07:37:37.352Z,75.10
2019-04-25T07:40:07.929Z,70.00
2019-04-25T07:42:36.536Z,67.80
2019-04-25T07:45:07.914Z,67.70
2019-04-25T07:47:36.480Z,64.40
2019-04-25T07:50:08.527Z,66.60
2019-04-25T07:52:37.687Z,63.80
2019-04-25T07:55:07.009Z,60.00
2019-04-25T07:57:35.893Z,51.20
2019-04-25T08:00:07.583Z,47.80
2019-04-25T08:02:36.144Z,44.60
2019-04-25T08:05:07.656Z,44.00
2019-04-25T08:07:36.318Z,41.30
2019-04-25T08:10:09.914Z,41.00
2019-04-25T08:12:39.458Z,41.50
2019-04-25T08:15:28.383Z,40.30
2019-04-25T08:18:08.018Z,41.70
2019-04-25T08:20:37.324Z,41.70
2019-04-25T08:23:06.903Z,40.90
2019-04-25T08:25:38.899Z,40.90
2019-04-25T08:28:05.940Z,39.10
2019-04-25T08:30:35.639Z,39.00
2019-04-25T08:33:05.295Z,37.10
2019-04-25T08:35:35.210Z,38.60
2019-04-25T08:38:05.860Z,39.10
2019-04-25T08:40:36.981Z,37.40
2019-04-25T08:43:04.995Z,37.40
2019-04-25T08:45:35.695Z,38.50
2019-04-25T08:48:04.050Z,35.80
2019-04-25T08:50:41.101Z,36.50
2019-04-25T08:53:09.978Z,36.50
2019-04-25T08:55:40.168Z,35.90
2019-04-25T08:58:23.636Z,36.70
2019-04-25T09:01:00.897Z,36.80
2019-04-25T09:03:35.788Z,36.10
2019-04-25T09:06:05.548Z,36.00
2019-04-25T09:08:36.026Z,35.20
2019-04-25T09:11:04.343Z,34.80
2019-04-25T09:13:35.405Z,34.60
2019-04-25T09:16:03.622Z,35.00
2019-04-25T09:18:34.707Z,35.30
2019-04-25T09:21:03.910Z,36.60
2019-04-25T09:23:34.400Z,36.40
2019-04-25T09:26:04.009Z,35.00
2019-04-25T09:28:35.060Z,35.20
2019-04-25T09:31:03.963Z,35.00
2019-04-25T09:33:34.157Z,35.10
2019-04-25T09:36:02.792Z,34.80
2019-04-25T09:38:31.423Z,34.20
2019-04-25T09:40:59.958Z,34.40
2019-04-25T09:43:28.603Z,35.30
2019-04-25T09:46:03.176Z,33.80
2019-04-25T09:48:40.280Z,33.30
2019-04-25T09:51:13.547Z,34.00
2019-04-25T09:53:49.615Z,32.80
2019-04-25T09:56:18.864Z,34.00
2019-04-25T09:58:49.518Z,32.10
2019-04-25T10:01:18.320Z,32.30
2019-04-25T10:03:47.335Z,32.90
2019-04-25T10:06:17.858Z,32.00
2019-04-25T10:08:47.432Z,32.60
2019-04-25T10:11:16.616Z,31.70
2019-04-25T10:13:48.266Z,32.00
2019-04-25T10:16:16.927Z,31.40
2019-04-25T10:18:45.859Z,32.10
2019-04-25T10:21:15.303Z,32.30
2019-04-25T10:23:45.366Z,32.40
2019-04-25T10:26:14.414Z,33.40
2019-04-25T10:28:44.075Z,33.20
2019-04-25T10:31:13.728Z,32.40
2019-04-25T10:33:43.739Z,33.30
2019-04-25T10:36:14.472Z,33.80
2019-04-25T10:38:46.292Z,33.50
2019-04-25T10:41:14.282Z,32.70
2019-04-25T10:43:43.996Z,32.60
2019-04-25T10:46:14.170Z,32.40
2019-04-25T10:48:43.985Z,32.90
2019-04-25T10:51:13.905Z,33.10
2019-04-25T10:53:45.460Z,32.90
2019-04-25T10:56:14.147Z,32.30
2019-04-25T10:58:44.462Z,31.40
2019-04-25T11:01:15.025Z,31.30
2019-04-25T11:03:51.678Z,31.80
2019-04-25T11:06:23.292Z,31.80
2019-04-25T11:08:55.028Z,31.50
2019-04-25T11:11:23.998Z,30.40
2019-04-25T11:13:54.558Z,30.60
2019-04-25T11:16:24.296Z,29.90
2019-04-25T11:18:54.697Z,30.50
2019-04-25T11:21:24.277Z,29.70
2019-04-25T11:23:55.157Z,29.70
2019-04-25T11:26:23.489Z,30.00
2019-04-25T11:28:52.178Z,30.10
2019-04-25T11:31:23.537Z,29.90
2019-04-25T11:33:54.276Z,30.30
2019-04-25T11:36:24.770Z,28.50
2019-04-25T11:38:54.863Z,28.70
2019-04-25T11:41:24.467Z,28.70
2019-04-25T11:43:55.267Z,28.40
2019-04-25T11:46:24.182Z,28.60
2019-04-25T11:48:54.695Z,28.70
2019-04-25T11:51:24.035Z,29.30
2019-04-25T11:53:54.244Z,29.70
2019-04-25T11:56:24.200Z,28.80
2019-04-25T11:58:54.148Z,28.50
2019-04-25T12:01:24.298Z,28.50
2019-04-25T12:03:54.835Z,28.70
2019-04-25T12:06:24.367Z,29.70
2019-04-25T12:08:54.180Z,27.80
2019-04-25T12:11:23.635Z,27.90
2019-04-25T12:13:54.235Z,29.10
2019-04-25T12:16:24.522Z,28.70
2019-04-25T12:18:56.072Z,28.70
2019-04-25T12:21:23.949Z,28.80
2019-04-25T12:23:52.665Z,29.20
2019-04-25T12:26:21.510Z,28.60
2019-04-25T12:28:50.044Z,29.40
2019-04-25T12:31:19.061Z,28.90
2019-04-25T12:33:48.645Z,28.60
2019-04-25T12:36:17.950Z,28.80
2019-04-25T12:38:46.620Z,29.70
2019-04-25T12:41:15.231Z,29.90
2019-04-25T12:43:45.782Z,30.40
2019-04-25T12:46:22.134Z,29.70
2019-04-25T12:48:51.644Z,29.30
2019-04-25T12:51:20.575Z,29.60
2019-04-25T12:53:49.122Z,29.40
2019-04-25T12:56:20.246Z,29.10
2019-04-25T12:58:47.963Z,28.80
2019-04-25T13:01:16.660Z,28.90
2019-04-25T13:03:45.199Z,29.30
2019-04-25T13:06:15.719Z,28.90
2019-04-25T13:08:44.138Z,29.40
2019-04-25T13:11:13.941Z,29.60
2019-04-25T13:13:43.615Z,30.00
2019-04-25T13:16:13.143Z,30.00
2019-04-25T13:18:41.852Z,29.30
2019-04-25T13:21:10.420Z,28.40
2019-04-25T13:23:39.023Z,29.50
2019-04-25T13:26:07.892Z,29.30
2019-04-25T13:28:56.273Z,29.60
2019-04-25T13:31:26.439Z,29.20
2019-04-25T13:34:04.264Z,29.80
2019-04-25T13:36:32.963Z,29.90
2019-04-25T13:39:05.551Z,29.90
2019-04-25T13:41:34.300Z,30.40
2019-04-25T13:44:03.561Z,30.80
2019-04-25T13:46:34.296Z,31.00
2019-04-25T13:49:04.252Z,30.90
2019-04-25T13:51:33.295Z,30.90
2019-04-25T13:54:02.129Z,31.60
2019-04-25T13:56:30.788Z,31.70
2019-04-25T13:58:59.359Z,31.80
2019-04-25T14:01:27.988Z,30.60
2019-04-25T14:03:56.864Z,30.60
2019-04-25T14:06:26.196Z,30.90
2019-04-25T14:08:54.907Z,29.60
2019-04-25T14:11:24.087Z,29.50
2019-04-25T14:13:52.941Z,29.60
2019-04-25T14:16:40.068Z,29.70
2019-04-25T14:19:10.348Z,29.70
2019-04-25T14:21:39.022Z,29.40
2019-04-25T14:24:19.649Z,29.50
2019-04-25T14:26:37.979Z,29.20
2019-04-25T14:29:06.511Z,29.60
2019-04-25T14:31:45.431Z,29.90
2019-04-25T14:34:05.398Z,30.20
2019-04-25T14:36:34.549Z,29.40
2019-04-25T14:39:03.974Z,30.30
2019-04-25T14:41:32.592Z,30.80
2019-04-25T14:44:01.227Z,29.70
2019-04-25T14:46:29.954Z,30.80
2019-04-25T14:48:58.608Z,32.00
2019-04-25T14:51:28.143Z,30.20
2019-04-25T14:53:57.806Z,29.60
2019-04-25T14:56:32.397Z,30.00
2019-04-25T14:59:01.033Z,30.00
2019-04-25T15:01:30.189Z,30.10
2019-04-25T15:03:58.787Z,32.60
2019-04-25T15:06:27.687Z,30.00
2019-04-25T15:08:56.271Z,30.10
2019-04-25T15:11:24.803Z,29.80
2019-04-25T15:13:53.381Z,29.80
2019-04-25T15:16:22.393Z,29.70
2019-04-25T15:18:51.936Z,30.50
2019-04-25T15:21:20.490Z,29.90
2019-04-25T15:23:59.601Z,29.70
2019-04-25T15:26:19.320Z,29.90
2019-04-25T15:28:47.857Z,30.40
2019-04-25T15:31:16.452Z,31.50
2019-04-25T15:33:45.013Z,29.60
2019-04-25T15:36:24.755Z,30.30
2019-04-25T15:38:57.987Z,30.30
2019-04-25T15:41:33.698Z,31.30
2019-04-25T15:44:20.040Z,30.70
2019-04-25T15:46:53.112Z,31.00
2019-04-25T15:49:21.740Z,30.50
2019-04-25T15:51:51.550Z,31.60
2019-04-25T15:54:20.088Z,33.80
2019-04-25T15:56:48.728Z,33.70
2019-04-25T15:59:17.253Z,32.20
2019-04-25T16:01:45.956Z,34.10
2019-04-25T16:04:14.504Z,32.50
2019-04-25T16:06:43.044Z,32.70
2019-04-25T16:09:11.743Z,33.00
2019-04-25T16:11:41.067Z,34.60
2019-04-25T16:14:09.556Z,34.50
2019-04-25T16:16:38.361Z,34.80
2019-04-25T16:19:07.212Z,35.50
2019-04-25T16:21:35.836Z,34.10
2019-04-25T16:24:04.671Z,33.90
2019-04-25T16:26:33.618Z,33.70
2019-04-25T16:29:02.236Z,34.00
2019-04-25T16:31:30.846Z,34.20
2019-04-25T16:33:59.395Z,34.90
2019-04-25T16:36:28.008Z,34.40
2019-04-25T16:38:56.631Z,33.90
2019-04-25T16:41:25.438Z,33.90
2019-04-25T16:43:55.626Z,34.30
2019-04-25T16:46:25.155Z,35.40
2019-04-25T16:48:53.752Z,34.80
2019-04-25T16:51:23.315Z,34.90
2019-04-25T16:53:51.995Z,35.00
2019-04-25T16:56:20.595Z,35.10
2019-04-25T16:58:49.223Z,34.70
2019-04-25T17:01:18.100Z,35.10
2019-04-25T17:03:46.700Z,35.30
2019-04-25T17:06:15.300Z,35.60
2019-04-25T17:08:44.495Z,36.10
2019-04-25T17:11:13.859Z,36.20
2019-04-25T17:13:44.039Z,36.00
2019-04-25T17:16:32.712Z,36.90
2019-04-25T17:19:11.583Z,37.40
2019-04-25T17:21:40.221Z,37.50
2019-04-25T17:24:08.887Z,38.00
2019-04-25T17:26:37.436Z,37.60
2019-04-25T17:29:07.787Z,37.70
2019-04-25T17:31:40.403Z,37.60
2019-04-25T17:34:10.784Z,37.80
2019-04-25T17:36:40.963Z,38.10
2019-04-25T17:39:11.163Z,38.30
2019-04-25T17:41:40.482Z,38.50
2019-04-25T17:44:09.134Z,38.80
2019-04-25T17:46:37.667Z,38.90
2019-04-25T17:49:06.462Z,39.10
2019-04-25T17:51:35.024Z,39.10
2019-04-25T17:54:03.704Z,39.10
2019-04-25T17:56:33.201Z,39.20
2019-04-25T17:59:02.240Z,39.30
2019-04-25T18:01:30.844Z,39.30
2019-04-25T18:03:59.484Z,39.40
2019-04-25T18:06:28.084Z,39.50
2019-04-25T18:08:56.615Z,39.80
2019-04-25T18:11:25.248Z,39.80
2019-04-25T18:13:53.875Z,40.00
2019-04-25T18:16:24.127Z,40.10
2019-04-25T18:19:03.500Z,40.20
2019-04-25T18:21:32.183Z,40.20
2019-04-25T18:24:02.386Z,40.30
2019-04-25T18:26:47.558Z,40.30
2019-04-25T18:29:17.835Z,40.40
2019-04-25T18:31:46.495Z,40.40
2019-04-25T18:34:16.748Z,40.40
2019-04-25T18:36:47.221Z,40.20
2019-04-25T18:39:23.488Z,40.30
2019-04-25T18:41:56.558Z,40.30
2019-04-25T18:44:25.103Z,40.50
2019-04-25T18:46:53.803Z,40.60
2019-04-25T18:49:22.411Z,40.70
2019-04-25T18:51:57.509Z,40.80
2019-04-25T18:54:30.249Z,40.90
2019-04-25T18:57:00.526Z,41.00
2019-04-25T18:59:46.867Z,41.00
2019-04-25T19:02:18.003Z,41.20
2019-04-25T19:05:04.723Z,41.20
2019-04-25T19:07:33.366Z,41.30
2019-04-25T19:10:01.894Z,41.40
2019-04-25T19:12:30.449Z,41.50
2019-04-25T19:14:59.077Z,41.70
2019-04-25T19:17:27.676Z,41.80
2019-04-25T19:19:56.244Z,41.80
2019-04-25T19:22:24.775Z,41.80
2019-04-25T19:24:53.378Z,41.70
2019-04-25T19:27:23.852Z,41.90
2019-04-25T19:29:53.452Z,42.10
2019-04-25T19:32:22.473Z,42.30
2019-04-25T19:34:51.009Z,42.50
2019-04-25T19:37:19.684Z,42.80
2019-04-25T19:39:52.829Z,43.10
2019-04-25T19:42:23.007Z,43.20
2019-04-25T19:44:51.566Z,43.20
2019-04-25T19:47:20.802Z,43.30
2019-04-25T19:49:49.833Z,43.60
2019-04-25T19:52:18.408Z,43.80
2019-04-25T19:54:47.314Z,43.90
2019-04-25T19:57:16.166Z,43.80
2019-04-25T19:59:44.756Z,44.00
2019-04-25T20:02:27.272Z,44.10
2019-04-25T20:04:57.447Z,44.20
2019-04-25T20:07:27.639Z,44.30
2019-04-25T20:10:00.564Z,44.50
2019-04-25T20:12:33.479Z,44.50
2019-04-25T20:15:02.216Z,44.90
2019-04-25T20:17:30.744Z,44.80
2019-04-25T20:19:59.308Z,45.00
2019-04-25T20:22:27.848Z,45.10
2019-04-25T20:24:56.408Z,45.30
2019-04-25T20:27:25.016Z,45.20
2019-04-25T20:29:53.547Z,45.30
2019-04-25T20:32:22.411Z,45.40
2019-04-25T20:34:51.076Z,45.60
2019-04-25T20:37:19.734Z,45.80
2019-04-25T20:39:49.368Z,46.10
2019-04-25T20:42:18.153Z,46.90
2019-04-25T20:44:47.657Z,46.40
2019-04-25T20:47:16.316Z,46.50
2019-04-25T20:49:46.627Z,47.10
2019-04-25T20:52:15.055Z,47.60
2019-04-25T20:54:43.599Z,47.60
2019-04-25T20:57:12.161Z,47.70
2019-04-25T20:59:40.698Z,48.30
2019-04-25T21:02:09.558Z,49.00
2019-04-25T21:04:42.537Z,48.20
2019-04-25T21:07:11.749Z,49.00
2019-04-25T21:09:40.426Z,49.70
2019-04-25T21:12:09.119Z,50.90
2019-04-25T21:14:39.556Z,50.90
2019-04-25T21:17:12.881Z,50.90
2019-04-25T21:19:43.058Z,51.00
2019-04-25T21:22:11.619Z,52.10
2019-04-25T21:24:40.142Z,52.10
2019-04-25T21:27:08.708Z,52.50
2019-04-25T21:29:37.247Z,52.50
2019-04-25T21:32:05.943Z,52.00
2019-04-25T21:34:34.543Z,51.50
2019-04-25T21:37:04.444Z,51.20
2019-04-25T21:39:41.657Z,51.40
2019-04-25T21:42:13.035Z,51.80
2019-04-25T21:44:41.770Z,52.10
2019-04-25T21:47:10.399Z,52.30
2019-04-25T21:49:39.321Z,51.90
2019-04-25T21:52:07.950Z,51.80
2019-04-25T21:54:36.897Z,52.10
2019-04-25T21:57:05.885Z,51.80
2019-04-25T21:59:34.489Z,52.20
2019-04-25T22:02:03.178Z,52.50
2019-04-25T22:04:38.978Z,52.30
2019-04-25T22:07:02.997Z,53.00
2019-04-25T22:09:32.059Z,52.40
2019-04-25T22:12:01.217Z,52.70
2019-04-25T22:14:29.868Z,52.60
2019-04-25T22:16:58.900Z,55.30
2019-04-25T22:19:28.637Z,56.20
2019-04-25T22:21:58.724Z,55.50
2019-04-25T22:24:27.467Z,55.90
2019-04-25T22:26:58.775Z,57.10
2019-04-25T22:29:27.618Z,56.80
2019-04-25T22:32:07.503Z,56.90
2019-04-25T22:34:51.512Z,58.60
2019-04-25T22:37:11.513Z,58.10
2019-04-25T22:39:40.522Z,58.50
2019-04-25T22:42:09.068Z,57.60
2019-04-25T22:44:38.093Z,57.60
2019-04-25T22:47:07.080Z,58.70
2019-04-25T22:49:35.637Z,59.60
2019-04-25T22:52:04.973Z,60.80
2019-04-25T22:54:33.631Z,62.00
2019-04-25T22:57:02.614Z,61.20
2019-04-25T22:59:31.611Z,60.20
2019-04-25T23:02:13.644Z,60.60
2019-04-25T23:04:46.767Z,60.20
2019-04-25T23:07:15.778Z,58.50
2019-04-25T23:09:44.591Z,58.70
2019-04-25T23:12:13.498Z,58.00
2019-04-25T23:14:42.461Z,58.20
2019-04-25T23:17:11.497Z,57.90
2019-04-25T23:19:40.166Z,57.50
2019-04-25T23:22:09.485Z,56.70
2019-04-25T23:24:39.699Z,56.00
2019-04-25T23:27:14.162Z,55.60
2019-04-25T23:29:42.898Z,55.40
2019-04-25T23:32:12.434Z,56.00
2019-04-25T23:34:41.011Z,57.20
2019-04-25T23:37:09.623Z,56.90
2019-04-25T23:39:38.585Z,57.50
2019-04-25T23:42:07.281Z,57.70
2019-04-25T23:44:36.187Z,57.20
2019-04-25T23:47:05.955Z,58.40
2019-04-25T23:49:34.996Z,59.60
2019-04-25T23:52:03.870Z,60.50
2019-04-25T23:54:32.649Z,61.30
2019-04-25T23:57:01.561Z,61.60
2019-04-25T23:59:30.197Z,61.70
